createdAt,value
2018-05-19T00:02:00.115Z,90.20
2018-05-19T00:04:27.130Z,90.56
2018-05-19T00:06:55.024Z,90.36
2018-05-19T00:09:22.281Z,90.27
2018-05-19T00:11:49.481Z,90.62
2018-05-19T00:14:16.594Z,90.88
2018-05-19T00:16:43.609Z,90.84
2018-05-19T00:19:11.276Z,91.01
2018-05-19T00:21:38.285Z,90.79
2018-05-19T00:24:05.386Z,90.67
2018-05-19T00:26:32.379Z,91.03
2018-05-19T00:28:59.372Z,91.33
2018-05-19T00:31:26.606Z,91.41
2018-05-19T00:33:54.221Z,91.51
2018-05-19T00:36:21.273Z,91.48
2018-05-19T00:38:48.320Z,91.41
2018-05-19T00:41:15.388Z,91.40
2018-05-19T00:43:42.574Z,91.47
2018-05-19T00:46:09.796Z,91.59
2018-05-19T00:48:36.810Z,91.69
2018-05-19T00:51:03.941Z,91.47
2018-05-19T00:53:31.069Z,91.72
2018-05-19T00:55:58.396Z,91.68
2018-05-19T00:58:25.596Z,91.78
2018-05-19T01:00:52.989Z,91.67
2018-05-19T01:03:20.025Z,91.89
2018-05-19T01:05:47.060Z,91.97
2018-05-19T01:08:14.187Z,92.18
2018-05-19T01:10:41.196Z,92.24
2018-05-19T01:13:08.301Z,92.12
2018-05-19T01:15:35.514Z,92.25
2018-05-19T01:18:02.649Z,92.20
2018-05-19T01:20:29.855Z,92.25
2018-05-19T01:22:56.907Z,92.38
2018-05-19T01:25:24.437Z,92.32
2018-05-19T01:27:51.434Z,92.52
2018-05-19T01:30:18.525Z,92.60
2018-05-19T01:32:45.570Z,92.79
2018-05-19T01:35:12.603Z,92.92
2018-05-19T01:37:39.615Z,93.08
2018-05-19T01:40:06.760Z,93.10
2018-05-19T01:42:33.751Z,93.32
2018-05-19T01:45:00.802Z,93.10
2018-05-19T01:47:27.945Z,93.23
2018-05-19T01:49:55.019Z,93.30
2018-05-19T01:52:22.047Z,93.50
2018-05-19T01:54:49.366Z,93.63
2018-05-19T01:57:16.354Z,93.92
2018-05-19T01:59:43.461Z,93.97
2018-05-19T02:02:10.635Z,93.90
2018-05-19T02:04:37.822Z,93.74
2018-05-19T02:07:04.830Z,93.63
2018-05-19T02:09:32.669Z,93.68
2018-05-19T02:11:59.715Z,93.56
2018-05-19T02:14:26.990Z,93.83
2018-05-19T02:16:54.243Z,93.82
2018-05-19T02:19:21.273Z,93.68
2018-05-19T02:21:48.520Z,93.80
2018-05-19T02:24:15.787Z,93.83
2018-05-19T02:26:43.033Z,93.82
2018-05-19T02:29:10.280Z,93.62
2018-05-19T02:31:37.361Z,93.77
2018-05-19T02:34:04.403Z,93.96
2018-05-19T02:36:31.407Z,93.81
2018-05-19T02:38:58.436Z,93.61
2018-05-19T02:41:25.551Z,93.62
2018-05-19T02:43:52.638Z,93.98
2018-05-19T02:46:19.651Z,94.07
2018-05-19T02:48:46.693Z,94.12
2018-05-19T02:51:13.757Z,94.17
2018-05-19T02:53:41.501Z,94.16
2018-05-19T02:56:08.739Z,94.03
2018-05-19T02:58:35.921Z,94.02
2018-05-19T03:01:03.107Z,94.13
2018-05-19T03:03:30.183Z,94.13
2018-05-19T03:05:57.310Z,94.27
2018-05-19T03:08:24.422Z,94.24
2018-05-19T03:10:51.485Z,94.25
2018-05-19T03:13:18.614Z,94.35
2018-05-19T03:15:45.851Z,94.41
2018-05-19T03:18:13.085Z,94.46
2018-05-19T03:20:40.093Z,94.34
2018-05-19T03:23:07.432Z,94.34
2018-05-19T03:25:34.439Z,94.31
2018-05-19T03:28:01.502Z,94.30
2018-05-19T03:30:28.541Z,94.46
2018-05-19T03:32:55.712Z,94.50
2018-05-19T03:35:22.737Z,94.56
2018-05-19T03:37:49.998Z,94.62
2018-05-19T03:40:17.205Z,94.36
2018-05-19T03:42:44.215Z,94.16
2018-05-19T03:45:11.228Z,94.17
2018-05-19T03:47:38.405Z,94.29
2018-05-19T03:50:05.398Z,94.56
2018-05-19T03:52:32.467Z,94.69
2018-05-19T03:54:59.448Z,94.84
2018-05-19T03:57:32.330Z,94.71
2018-05-19T04:00:05.485Z,94.79
2018-05-19T04:02:35.819Z,94.69
2018-05-19T04:05:02.938Z,94.54
2018-05-19T04:07:29.927Z,94.41
2018-05-19T04:09:56.941Z,94.21
2018-05-19T04:12:24.886Z,94.24
2018-05-19T04:14:51.976Z,94.35
2018-05-19T04:17:19.152Z,94.13
2018-05-19T04:19:46.267Z,93.37
2018-05-19T04:22:13.350Z,93.01
2018-05-19T04:24:40.346Z,92.90
2018-05-19T04:27:07.421Z,92.61
2018-05-19T04:29:34.802Z,92.18
2018-05-19T04:32:01.989Z,91.85
2018-05-19T04:34:28.971Z,91.39
2018-05-19T04:36:56.080Z,91.50
2018-05-19T04:39:23.191Z,91.37
2018-05-19T04:41:50.277Z,91.35
2018-05-19T04:44:17.527Z,91.06
2018-05-19T04:46:44.731Z,90.63
2018-05-19T04:49:11.842Z,90.43
2018-05-19T04:51:38.916Z,90.20
2018-05-19T04:54:06.219Z,89.61
2018-05-19T04:56:33.486Z,89.31
2018-05-19T04:59:00.745Z,88.61
2018-05-19T05:01:27.817Z,88.04
2018-05-19T05:03:55.044Z,87.71
2018-05-19T05:06:22.207Z,87.40
2018-05-19T05:08:49.315Z,86.96
2018-05-19T05:11:16.387Z,86.32
2018-05-19T05:13:43.664Z,85.30
2018-05-19T05:16:10.772Z,84.64
2018-05-19T05:18:37.847Z,83.36
2018-05-19T05:21:05.119Z,82.94
2018-05-19T05:23:32.379Z,81.98
2018-05-19T05:25:59.551Z,80.46
2018-05-19T05:28:26.646Z,79.07
2018-05-19T05:30:53.728Z,78.52
2018-05-19T05:33:20.895Z,74.99
2018-05-19T05:35:47.923Z,72.92
2018-05-19T05:38:15.231Z,72.68
2018-05-19T05:40:42.618Z,73.43
2018-05-19T05:43:09.651Z,72.60
2018-05-19T05:45:36.676Z,72.40
2018-05-19T05:48:03.767Z,73.15
2018-05-19T05:50:30.793Z,74.22
2018-05-19T05:52:57.974Z,74.81
2018-05-19T05:55:24.989Z,75.05
2018-05-19T05:57:52.033Z,75.13
2018-05-19T06:00:19.263Z,75.10
2018-05-19T06:02:46.282Z,74.27
2018-05-19T06:05:13.306Z,72.66
2018-05-19T06:07:40.559Z,69.35
2018-05-19T06:10:07.652Z,63.96
2018-05-19T06:12:34.644Z,65.15
2018-05-19T06:15:01.818Z,62.76
2018-05-19T06:17:28.935Z,65.69
2018-05-19T06:19:56.147Z,65.95
2018-05-19T06:22:23.158Z,64.05
2018-05-19T06:24:50.486Z,62.97
2018-05-19T06:27:17.442Z,61.15
2018-05-19T06:29:44.549Z,58.89
2018-05-19T06:32:11.663Z,56.99
2018-05-19T06:34:38.783Z,56.46
2018-05-19T06:37:06.060Z,55.79
2018-05-19T06:39:33.182Z,54.01
2018-05-19T06:42:00.246Z,53.40
2018-05-19T06:44:27.466Z,51.61
2018-05-19T06:46:54.804Z,49.34
2018-05-19T06:49:21.856Z,50.25
2018-05-19T06:51:49.263Z,49.47
2018-05-19T06:54:16.347Z,49.26
2018-05-19T06:56:43.419Z,48.79
2018-05-19T06:59:10.441Z,48.00
2018-05-19T07:01:37.977Z,47.10
2018-05-19T07:04:05.183Z,46.87
2018-05-19T07:06:32.392Z,45.08
2018-05-19T07:08:59.454Z,43.76
2018-05-19T07:11:26.507Z,43.56
2018-05-19T07:13:53.672Z,45.29
2018-05-19T07:16:20.679Z,46.06
2018-05-19T07:18:47.749Z,46.06
2018-05-19T07:21:14.782Z,43.83
2018-05-19T07:23:42.058Z,44.06
2018-05-19T07:26:09.134Z,45.02
2018-05-19T07:28:36.252Z,44.54
2018-05-19T07:31:04.069Z,43.22
2018-05-19T07:33:31.777Z,42.43
2018-05-19T07:35:58.814Z,44.63
2018-05-19T07:38:25.823Z,44.78
2018-05-19T07:40:52.867Z,45.55
2018-05-19T07:43:20.152Z,47.98
2018-05-19T07:45:47.318Z,49.75
2018-05-19T07:48:14.465Z,51.60
2018-05-19T07:50:41.484Z,51.98
2018-05-19T07:53:08.538Z,52.90
2018-05-19T07:55:35.630Z,53.57
2018-05-19T07:58:02.728Z,55.15
2018-05-19T08:00:30.062Z,56.39
2018-05-19T08:02:57.196Z,55.86
2018-05-19T08:05:24.317Z,54.74
2018-05-19T08:07:51.789Z,53.45
2018-05-19T08:10:18.909Z,51.47
2018-05-19T08:12:45.934Z,49.11
2018-05-19T08:15:13.053Z,48.91
2018-05-19T08:17:40.071Z,47.42
2018-05-19T08:20:07.093Z,46.17
2018-05-19T08:22:34.234Z,42.82
2018-05-19T08:25:01.544Z,41.65
2018-05-19T08:27:28.818Z,41.03
2018-05-19T08:29:55.904Z,42.09
2018-05-19T08:32:23.025Z,42.90
2018-05-19T08:34:50.141Z,41.34
2018-05-19T08:37:17.182Z,41.17
2018-05-19T08:39:44.356Z,43.72
2018-05-19T08:42:11.405Z,43.46
2018-05-19T08:44:39.311Z,43.65
2018-05-19T08:47:06.408Z,43.89
2018-05-19T08:49:33.934Z,44.81
2018-05-19T08:52:01.200Z,45.36
2018-05-19T08:54:28.278Z,45.23
2018-05-19T08:56:55.543Z,44.36
2018-05-19T08:59:22.882Z,42.63
2018-05-19T09:01:49.995Z,40.88
2018-05-19T09:04:17.479Z,39.88
2018-05-19T09:06:44.813Z,37.85
2018-05-19T09:09:11.865Z,38.61
2018-05-19T09:11:38.899Z,38.31
2018-05-19T09:14:05.911Z,37.75
2018-05-19T09:16:33.118Z,36.71
2018-05-19T09:19:00.325Z,36.38
2018-05-19T09:21:27.382Z,36.84
2018-05-19T09:23:55.011Z,35.56
2018-05-19T09:26:22.894Z,34.84
2018-05-19T09:28:50.419Z,32.66
2018-05-19T09:31:18.055Z,29.89
2018-05-19T09:33:45.950Z,27.76
2018-05-19T09:36:13.698Z,26.13
2018-05-19T09:38:41.300Z,23.99
2018-05-19T09:41:08.792Z,21.87
2018-05-19T09:43:36.436Z,23.95
2018-05-19T09:46:04.083Z,23.77
2018-05-19T09:48:31.700Z,25.16
2018-05-19T09:50:59.279Z,28.20
2018-05-19T09:53:26.917Z,28.84
2018-05-19T09:55:54.940Z,29.50
2018-05-19T09:58:22.063Z,30.10
2018-05-19T10:00:49.153Z,30.63
2018-05-19T10:03:16.245Z,30.61
2018-05-19T10:05:43.913Z,31.90
2018-05-19T10:08:11.024Z,32.60
2018-05-19T10:10:38.223Z,33.16
2018-05-19T10:13:05.948Z,33.05
2018-05-19T10:15:33.548Z,33.42
2018-05-19T10:18:01.098Z,34.19
2018-05-19T10:20:29.079Z,33.98
2018-05-19T10:22:56.821Z,33.01
2018-05-19T10:25:24.577Z,31.19
2018-05-19T10:27:52.203Z,27.79
2018-05-19T10:30:19.829Z,26.08
2018-05-19T10:32:47.335Z,24.86
2018-05-19T10:35:14.816Z,23.27
2018-05-19T10:37:42.275Z,23.50
2018-05-19T10:40:09.931Z,25.04
2018-05-19T10:42:37.481Z,24.73
2018-05-19T10:45:04.943Z,24.47
2018-05-19T10:47:32.581Z,24.04
2018-05-19T10:50:00.094Z,23.74
2018-05-19T10:52:27.856Z,22.11
2018-05-19T10:54:55.414Z,21.50
2018-05-19T10:57:23.016Z,19.91
2018-05-19T10:59:50.489Z,18.48
2018-05-19T11:02:17.979Z,18.91
2018-05-19T11:04:45.473Z,19.00
2018-05-19T11:07:14.070Z,19.60
2018-05-19T11:09:41.698Z,20.45
2018-05-19T11:12:09.337Z,20.97
2018-05-19T11:14:36.794Z,22.40
2018-05-19T11:17:04.275Z,23.02
2018-05-19T11:19:31.784Z,21.57
2018-05-19T11:21:59.451Z,21.96
2018-05-19T11:24:27.031Z,21.83
2018-05-19T11:26:54.525Z,21.08
2018-05-19T11:29:22.159Z,20.06
2018-05-19T11:31:49.699Z,19.61
2018-05-19T11:34:17.180Z,20.00
2018-05-19T11:36:44.781Z,19.00
2018-05-19T11:39:12.280Z,18.53
2018-05-19T11:41:39.946Z,18.39
2018-05-19T11:44:07.366Z,18.40
2018-05-19T11:46:34.834Z,18.64
2018-05-19T11:49:02.585Z,17.82
2018-05-19T11:51:30.385Z,17.63
2018-05-19T11:53:57.962Z,19.15
2018-05-19T11:56:25.541Z,19.52
2018-05-19T11:58:53.166Z,20.24
2018-05-19T12:01:20.747Z,19.19
2018-05-19T12:03:48.334Z,20.85
2018-05-19T12:06:15.783Z,22.36
2018-05-19T12:08:43.308Z,23.59
2018-05-19T12:11:10.987Z,21.72
2018-05-19T12:13:38.611Z,20.20
2018-05-19T12:16:06.161Z,21.16
2018-05-19T12:18:33.786Z,20.75
2018-05-19T12:21:01.280Z,19.95
2018-05-19T12:23:28.898Z,19.65
2018-05-19T12:25:56.545Z,20.46
2018-05-19T12:28:24.420Z,19.82
2018-05-19T12:30:51.925Z,19.97
2018-05-19T12:33:19.530Z,19.54
2018-05-19T12:35:47.171Z,19.46
2018-05-19T12:38:14.911Z,19.65
2018-05-19T12:40:42.365Z,20.32
2018-05-19T12:43:09.905Z,20.96
2018-05-19T12:45:37.506Z,21.26
2018-05-19T12:48:05.075Z,21.22
2018-05-19T12:50:32.889Z,22.35
2018-05-19T12:53:00.424Z,23.29
2018-05-19T12:55:27.931Z,24.80
2018-05-19T12:57:55.752Z,26.87
2018-05-19T13:00:23.230Z,28.37
2018-05-19T13:02:50.809Z,27.53
2018-05-19T13:05:18.395Z,26.80
2018-05-19T13:07:46.001Z,26.16
2018-05-19T13:10:13.467Z,27.16
2018-05-19T13:12:41.154Z,27.27
2018-05-19T13:15:08.720Z,27.59
2018-05-19T13:17:36.315Z,27.85
2018-05-19T13:20:03.785Z,27.74
2018-05-19T13:22:31.445Z,27.80
2018-05-19T13:24:59.115Z,29.74
2018-05-19T13:27:27.059Z,30.33
2018-05-19T13:29:54.619Z,29.85
2018-05-19T13:32:22.070Z,30.75
2018-05-19T13:34:49.735Z,31.24
2018-05-19T13:37:17.246Z,32.55
2018-05-19T13:39:44.835Z,33.50
2018-05-19T13:42:12.635Z,32.58
2018-05-19T13:44:40.470Z,32.77
2018-05-19T13:47:07.596Z,33.60
2018-05-19T13:49:35.194Z,32.78
2018-05-19T13:52:02.775Z,32.97
2018-05-19T13:54:29.782Z,32.33
2018-05-19T13:56:56.925Z,31.59
2018-05-19T13:59:24.396Z,31.83
2018-05-19T14:01:51.640Z,33.47
2018-05-19T14:04:18.944Z,33.30
2018-05-19T14:06:46.246Z,33.04
2018-05-19T14:09:13.414Z,33.24
2018-05-19T14:11:40.935Z,33.48
2018-05-19T14:14:08.447Z,32.74
2018-05-19T14:16:36.051Z,33.16
2018-05-19T14:19:03.128Z,33.48
2018-05-19T14:21:30.249Z,33.29
2018-05-19T14:23:57.414Z,33.88
2018-05-19T14:26:24.872Z,33.74
2018-05-19T14:28:52.051Z,34.60
2018-05-19T14:31:19.624Z,34.67
2018-05-19T14:33:47.120Z,34.14
2018-05-19T14:36:14.261Z,34.77
2018-05-19T14:38:41.261Z,34.62
2018-05-19T14:41:08.944Z,35.13
2018-05-19T14:43:35.953Z,36.15
2018-05-19T14:46:03.066Z,36.97
2018-05-19T14:48:30.598Z,37.15
2018-05-19T14:50:58.107Z,36.62
2018-05-19T14:53:26.025Z,37.37
2018-05-19T14:55:53.018Z,37.24
2018-05-19T14:58:20.650Z,38.25
2018-05-19T15:00:47.874Z,38.93
2018-05-19T15:03:15.226Z,40.56
2018-05-19T15:05:42.691Z,40.39
2018-05-19T15:08:10.205Z,40.88
2018-05-19T15:10:37.851Z,41.17
2018-05-19T15:13:04.991Z,41.28
2018-05-19T15:15:32.003Z,41.52
2018-05-19T15:17:59.270Z,41.87
2018-05-19T15:20:26.677Z,41.60
2018-05-19T15:22:53.681Z,42.07
2018-05-19T15:25:21.424Z,42.00
2018-05-19T15:27:48.687Z,41.64
2018-05-19T15:30:15.950Z,42.59
2018-05-19T15:32:42.980Z,42.83
2018-05-19T15:35:10.380Z,43.20
2018-05-19T15:37:37.461Z,42.32
2018-05-19T15:40:04.814Z,42.38
2018-05-19T15:42:31.955Z,43.02
2018-05-19T15:44:58.962Z,43.74
2018-05-19T15:47:25.987Z,44.31
2018-05-19T15:49:52.992Z,44.01
2018-05-19T15:52:19.992Z,44.90
2018-05-19T15:54:47.179Z,44.85
2018-05-19T15:57:14.328Z,45.19
2018-05-19T15:59:41.335Z,44.60
2018-05-19T16:02:08.381Z,44.55
2018-05-19T16:04:35.440Z,45.20
2018-05-19T16:07:02.546Z,44.59
2018-05-19T16:09:29.842Z,44.85
2018-05-19T16:11:57.592Z,45.20
2018-05-19T16:14:25.396Z,45.03
2018-05-19T16:16:52.554Z,45.57
2018-05-19T16:19:19.549Z,46.94
2018-05-19T16:21:46.671Z,46.39
2018-05-19T16:24:13.827Z,46.20
2018-05-19T16:26:41.106Z,46.09
2018-05-19T16:29:08.208Z,45.69
2018-05-19T16:31:35.238Z,46.30
2018-05-19T16:34:02.451Z,46.23
2018-05-19T16:36:29.552Z,46.47
2018-05-19T16:38:56.587Z,46.63
2018-05-19T16:41:23.711Z,46.83
2018-05-19T16:43:50.761Z,47.33
2018-05-19T16:46:17.815Z,47.19
2018-05-19T16:48:44.865Z,47.39
2018-05-19T16:51:11.926Z,47.42
2018-05-19T16:53:38.979Z,47.59
2018-05-19T16:56:06.125Z,47.62
2018-05-19T16:58:33.316Z,48.35
2018-05-19T17:01:00.547Z,48.58
2018-05-19T17:03:27.695Z,48.81
2018-05-19T17:05:55.004Z,49.13
2018-05-19T17:08:22.204Z,48.75
2018-05-19T17:10:49.231Z,48.74
2018-05-19T17:13:16.240Z,48.87
2018-05-19T17:15:43.277Z,49.86
2018-05-19T17:18:10.401Z,49.97
2018-05-19T17:20:37.495Z,49.56
2018-05-19T17:23:04.648Z,49.67
2018-05-19T17:25:31.657Z,49.48
2018-05-19T17:27:58.780Z,49.82
2018-05-19T17:30:25.830Z,49.85
2018-05-19T17:32:52.803Z,50.36
2018-05-19T17:35:19.865Z,50.57
2018-05-19T17:37:46.991Z,50.89
2018-05-19T17:40:14.103Z,51.10
2018-05-19T17:42:41.200Z,51.37
2018-05-19T17:45:08.370Z,51.36
2018-05-19T17:47:35.543Z,51.90
2018-05-19T17:50:02.582Z,52.85
2018-05-19T17:52:29.652Z,52.59
2018-05-19T17:54:56.801Z,53.02
2018-05-19T17:57:23.912Z,53.44
2018-05-19T17:59:50.956Z,54.14
2018-05-19T18:02:18.647Z,54.30
2018-05-19T18:04:45.689Z,54.34
2018-05-19T18:07:12.691Z,54.91
2018-05-19T18:09:39.836Z,56.01
2018-05-19T18:12:07.087Z,56.93
2018-05-19T18:14:34.125Z,57.12
2018-05-19T18:17:01.217Z,57.03
2018-05-19T18:19:28.232Z,59.52
2018-05-19T18:21:55.300Z,59.16
2018-05-19T18:24:22.429Z,59.50
2018-05-19T18:26:49.481Z,60.86
2018-05-19T18:29:16.552Z,61.64
2018-05-19T18:31:43.761Z,62.78
2018-05-19T18:34:10.786Z,62.41
2018-05-19T18:36:37.862Z,62.16
2018-05-19T18:39:05.736Z,60.89
2018-05-19T18:41:32.769Z,59.14
2018-05-19T18:43:59.892Z,61.75
2018-05-19T18:46:27.041Z,60.05
2018-05-19T18:48:54.342Z,60.02
2018-05-19T18:51:21.666Z,57.06
2018-05-19T18:53:48.673Z,57.30
2018-05-19T18:56:15.743Z,56.94
2018-05-19T18:58:42.837Z,56.60
2018-05-19T19:01:09.963Z,56.90
2018-05-19T19:03:37.065Z,57.72
2018-05-19T19:06:04.206Z,58.57
2018-05-19T19:08:31.297Z,59.18
2018-05-19T19:10:58.577Z,63.34
2018-05-19T19:13:25.691Z,64.02
2018-05-19T19:15:52.871Z,65.59
2018-05-19T19:18:20.140Z,67.81
2018-05-19T19:20:47.122Z,68.51
2018-05-19T19:23:14.282Z,70.00
2018-05-19T19:25:41.312Z,70.69
2018-05-19T19:28:08.573Z,72.01
2018-05-19T19:30:35.633Z,72.21
2018-05-19T19:33:02.646Z,75.24
2018-05-19T19:35:29.792Z,77.41
2018-05-19T19:37:56.981Z,78.89
2018-05-19T19:40:24.047Z,76.89
2018-05-19T19:42:51.334Z,80.00
2018-05-19T19:45:18.399Z,77.66
2018-05-19T19:47:45.772Z,76.32
2018-05-19T19:50:12.933Z,78.84
2018-05-19T19:52:39.963Z,81.12
2018-05-19T19:55:06.993Z,81.34
2018-05-19T19:57:34.896Z,83.32
2018-05-19T20:00:02.662Z,83.73
2018-05-19T20:02:29.688Z,84.91
2018-05-19T20:04:56.705Z,85.90
2018-05-19T20:07:23.946Z,85.66
2018-05-19T20:09:50.990Z,85.49
2018-05-19T20:12:18.053Z,85.33
2018-05-19T20:14:45.149Z,86.78
2018-05-19T20:17:12.360Z,86.87
2018-05-19T20:19:39.512Z,87.62
2018-05-19T20:22:06.536Z,87.75
2018-05-19T20:24:33.673Z,87.38
2018-05-19T20:27:00.694Z,87.35
2018-05-19T20:29:27.751Z,87.42
2018-05-19T20:31:54.962Z,87.59
2018-05-19T20:34:21.982Z,87.99
2018-05-19T20:36:49.124Z,88.22
2018-05-19T20:39:16.207Z,88.31
2018-05-19T20:41:43.243Z,88.45
2018-05-19T20:44:10.353Z,88.13
2018-05-19T20:46:37.480Z,88.34
2018-05-19T20:49:04.489Z,88.94
2018-05-19T20:51:31.652Z,89.52
2018-05-19T20:53:58.651Z,89.58
2018-05-19T20:56:25.673Z,89.44
2018-05-19T20:58:52.827Z,89.80
2018-05-19T21:01:19.828Z,89.51
2018-05-19T21:03:47.204Z,89.40
2018-05-19T21:06:14.269Z,89.41
2018-05-19T21:08:41.522Z,89.12
2018-05-19T21:11:09.032Z,89.35
2018-05-19T21:13:36.088Z,89.20
2018-05-19T21:16:03.314Z,89.37
2018-05-19T21:18:30.478Z,89.36
2018-05-19T21:20:57.496Z,90.15
2018-05-19T21:23:24.778Z,90.42
2018-05-19T21:25:51.823Z,89.57
2018-05-19T21:28:19.284Z,89.40
2018-05-19T21:30:46.599Z,89.29
2018-05-19T21:33:13.878Z,88.88
2018-05-19T21:35:40.988Z,89.18
2018-05-19T21:38:08.048Z,89.76
2018-05-19T21:40:35.093Z,89.82
2018-05-19T21:43:02.137Z,90.20
2018-05-19T21:45:29.189Z,89.86
2018-05-19T21:47:56.224Z,90.03
2018-05-19T21:50:23.344Z,89.69
2018-05-19T21:52:50.528Z,89.87
2018-05-19T21:55:17.737Z,89.63
2018-05-19T21:57:44.728Z,90.16
2018-05-19T22:02:37.261Z,90.57
2018-05-19T22:05:04.264Z,90.58
2018-05-19T22:07:31.314Z,90.66
2018-05-19T22:09:58.307Z,90.83
2018-05-19T22:12:25.574Z,90.80
2018-05-19T22:14:54.792Z,90.77
2018-05-19T22:17:21.849Z,90.95
2018-05-19T22:19:48.872Z,91.29
2018-05-19T22:22:15.981Z,91.09
2018-05-19T22:24:43.012Z,91.04
2018-05-19T22:27:10.209Z,91.53
2018-05-19T22:29:37.326Z,91.70
2018-05-19T22:32:04.612Z,92.12
2018-05-19T22:34:31.617Z,92.34
2018-05-19T22:36:58.797Z,92.19
2018-05-19T22:39:25.902Z,92.01
2018-05-19T22:41:52.947Z,92.30
2018-05-19T22:44:20.186Z,92.47
2018-05-19T22:46:47.383Z,92.48
2018-05-19T22:49:14.492Z,92.22
2018-05-19T22:51:41.683Z,92.37
2018-05-19T22:54:08.878Z,92.27
2018-05-19T22:56:36.006Z,92.45
2018-05-19T22:59:03.275Z,92.33
2018-05-19T23:01:30.319Z,92.15
2018-05-19T23:03:57.694Z,92.22
2018-05-19T23:06:24.714Z,92.34
2018-05-19T23:08:51.838Z,92.41
2018-05-19T23:11:19.094Z,92.95
2018-05-19T23:13:46.242Z,92.78
2018-05-19T23:16:13.338Z,92.85
2018-05-19T23:18:40.442Z,92.90
2018-05-19T23:21:07.717Z,92.97
2018-05-19T23:23:34.803Z,92.98
2018-05-19T23:26:01.923Z,93.03
2018-05-19T23:28:29.052Z,93.10
2018-05-19T23:30:56.464Z,93.23
2018-05-19T23:33:24.191Z,93.32
2018-05-19T23:35:51.387Z,93.20
2018-05-19T23:38:18.593Z,93.72
2018-05-19T23:40:45.843Z,94.20
2018-05-19T23:43:12.983Z,93.78
2018-05-19T23:45:40.021Z,93.29
2018-05-19T23:48:07.286Z,93.24
2018-05-19T23:50:34.449Z,93.14
2018-05-19T23:53:01.618Z,93.17
2018-05-19T23:55:28.792Z,93.15
2018-05-19T23:57:55.782Z,93.36
